• Join FlightAware (Why Join?)
  • Login
  • US Flag GB Flag 
06:11 EDT


 

Airport Tracker/Info


-or-


 

Live Flight TrackerFlight Track Log ✈ UAL1062 ✈ 27-Jun-2013 ✈ KIAH - KIAD

Flight Track Log - Related Links

Times and Time Zones

All times are in EDT time to prevent confusion due to time zone crossing. See the UAL1062 flight status page for this flight to view local times or setup timezone preferences in your user account.

Time Position Orientation Groundspeed Altitude Reporting Facility
EDT Latitude Longitude Course Direction KTS MPH feet Rate Location/Type
18:03 29.9549 -95.3375 240° Southwest 187 215 700  Level FlightAware ADS-B
18:03 29.9524 -95.3353 143° Southeast 192 221 900 1,860 Climbing FlightAware ADS-B
18:03 29.9445 -95.3257 134° Southeast 201 231 1,200 1,500 Climbing FlightAware ADS-B
18:03 29.9345 -95.3115 129° Southeast 214 246 1,600 1,500 Climbing FlightAware ADS-B
18:04 29.9248 -95.2974 128° Southeast 227 261 2,000 2,160 Climbing FlightAware ADS-B
18:04 29.9151 -95.2836 129° Southeast 226 260 2,700 2,580 Climbing FlightAware ADS-B
18:04 29.9050 -95.2688 128° Southeast 232 267 3,300 1,920 Climbing FlightAware ADS-B
18:04 29.8947 -95.2537 128° Southeast 245 282 3,700 1,200 Climbing FlightAware ADS-B
18:05 29.8836 -95.2372 128° Southeast 264 304 3,900 600 Climbing FlightAware ADS-B
18:05 29.8721 -95.2199 127° Southeast 271 312 4,000 180 Climbing FlightAware ADS-B
18:05 29.8604 -95.2027 128° Southeast 271 312 4,000 180 Level FlightAware ADS-B
18:05 29.8478 -95.1845 129° Southeast 271 312 4,100 720 Climbing FlightAware ADS-B
18:06 29.8358 -95.1674 129° Southeast 275 316 4,400 1,380 Climbing FlightAware ADS-B
18:06 29.8278 -95.1557 128° Southeast 280 322 4,700 2,100 Climbing FlightAware ADS-B
18:06 29.8247 -95.1506 125° Southeast 283 326 4,900 2,520 Climbing FlightAware ADS-B
18:06 29.8224 -95.1464 122° Southeast 284 327 5,000 2,520 Climbing FlightAware ADS-B
18:06 29.8200 -95.1411 118° Southeast 285 328 5,200 3,000 Climbing FlightAware ADS-B
18:06 29.8178 -95.1354 114° Southeast 284 327 5,400 3,000 Climbing FlightAware ADS-B
18:06 29.8163 -95.1304 109° East 284 327 5,600 2,520 Climbing FlightAware ADS-B
18:06 29.8152 -95.1258 105° East 282 325 5,700 2,520 Climbing FlightAware ADS-B
18:06 29.8143 -95.1205 101° East 281 323 5,900 3,420 Climbing FlightAware ADS-B
18:06 29.8138 -95.1159 97° East 281 323 6,100 3,420 Climbing FlightAware ADS-B
18:06 29.8135 -95.1097 93° East 281 323 6,300 2,280 Climbing FlightAware ADS-B
18:06 29.8139 -95.0962 86° East 283 326 6,600 2,580 Climbing FlightAware ADS-B
18:07 29.8182 -95.0318 85° East 287 330 8,500 2,100 Climbing FlightAware ADS-B
18:09 29.8315 -94.8450 86° East 339 390 12,200 1,920 Climbing FlightAware ADS-B
18:11 29.8417 -94.6757 86° East 366 421 15,200 1,980 Climbing FlightAware ADS-B
18:12 29.8483 -94.5624 86° East 375 432 17,200 2,100 Climbing FlightAware ADS-B
18:12 29.8519 -94.5020 86° East 377 434 18,300 1,440 Climbing FlightAware ADS-B
18:13 29.8617 -94.3282 86° East 414 476 20,000 1,140 Climbing FlightAware ADS-B
18:14 29.8584 -94.1907 92° East 436 502 21,100 1,140 Climbing FlightAware ADS-B
18:15 29.8561 -94.1200 92° East 441 507 21,800 1,380 Climbing FlightAware ADS-B
18:16 29.8556 -94.0312 88° East 447 514 22,700 1,260 Climbing FlightAware ADS-B
18:16 29.8634 -93.9562 83° East 452 520 23,300 1,200 Climbing FlightAware ADS-B
18:17 29.8712 -93.8828 83° East 455 524 24,000 1,440 Climbing FlightAware ADS-B
18:17 29.8790 -93.8088 83° East 455 524 24,800 1,380 Climbing FlightAware ADS-B
18:18 29.8875 -93.7281 83° East 458 527 25,500 1,080 Climbing FlightAware ADS-B
18:18 29.8954 -93.6528 83° East 463 533 26,000 1,020 Climbing FlightAware ADS-B
18:19 29.9035 -93.5753 83° East 466 536 26,600 1,320 Climbing FlightAware ADS-B
18:19 29.9134 -93.4804 83° East 463 533 27,600 1,440 Climbing FlightAware ADS-B
18:20 29.9213 -93.4044 83° East 462 532 28,300 1,320 Climbing FlightAware ADS-B
18:21 29.9337 -93.2830 83° East 459 528 29,400 1,320 Climbing FlightAware ADS-B
18:21 29.9412 -93.2086 83° East 458 527 30,100 1,260 Climbing FlightAware ADS-B
18:22 29.9510 -93.1110 83° East 31,000 1,260 Climbing FlightAware
18:23 29.9600 -93.0276 83° East 450 518 31,700 1,200 Climbing FlightAware ADS-B
18:23 29.9803 -92.9175 78° East 447 514 32,600 1,020 Climbing FlightAware ADS-B
18:24 29.9937 -92.8448 78° East 447 514 33,100 900 Climbing FlightAware ADS-B
18:24 30.0070 -92.7708 78° East 447 514 33,600 840 Climbing FlightAware ADS-B
18:25 30.0224 -92.6809 79° East 447 514 34,100 660 Climbing FlightAware ADS-B
18:26 30.0355 -92.6071 78° East 448 516 34,400 720 Climbing FlightAware ADS-B
18:26 30.0501 -92.5270 78° East 448 516 34,900 540 Climbing FlightAware ADS-B
18:27 30.0640 -92.4506 78° East 449 517 35,000  Climbing FlightAware ADS-B
18:28 30.0998 -92.2508 78° East 449 517 35,000  Level FlightAware ADS-B
18:29 30.1125 -92.1787 78° East 446 513 35,000  Level FlightAware ADS-B
18:30 30.1364 -92.0475 78° East 446 513 35,000  Level Houston Center
18:31 30.1586 -91.9100 79° East 439 505 35,000  Level Houston Center
18:32 30.1842 -91.7697 78° East 445 512 35,000  Level Houston Center
18:33 30.2106 -91.6153 79° East 441 507 35,000  Level Houston Center
18:34 30.2347 -91.4758 79° East 442 509 35,000  Level Houston Center
18:39 30.3650 -90.6930 79° East 436 502 35,000  Level FlightAware
18:41 30.4060 -90.4440 79° East 435 501 35,000  Level FlightAware
18:44 30.4760 -90.0870 77° East 438 504 35,000  Level FlightAware
18:44 30.5090 -89.9990 66° East 438 504 35,000  Level FlightAware
18:45 30.5430 -89.9070 67° East 439 505 35,000  Level FlightAware
18:46 30.5750 -89.8210 67° East 443 510 35,000  Level FlightAware
18:47 30.6120 -89.7210 67° East 444 511 35,000  Level FlightAware
18:47 30.6460 -89.6300 67° East 446 513 35,000  Level FlightAware
18:48 30.6820 -89.5330 67° East 446 513 35,000  Level FlightAware
18:49 30.7140 -89.4440 67° East 446 513 35,000  Level FlightAware
18:49 30.7460 -89.3570 67° East 445 512 35,000  Level FlightAware
18:50 30.7770 -89.2730 67° East 444 511 35,000  Level FlightAware
18:51 30.8110 -89.1800 67° East 442 509 35,000  Level FlightAware
18:51 30.8480 -89.0780 67° East 443 510 35,000  Level FlightAware
18:52 30.8810 -88.9880 67° East 444 511 35,000  Level FlightAware
18:53 30.9170 -88.8890 67° East 445 512 35,000  Level FlightAware
18:54 30.9510 -88.7940 67° East 445 512 35,000  Level FlightAware
18:54 30.9840 -88.7020 67° East 445 512 35,000  Level FlightAware
18:55 31.0140 -88.6180 67° East 442 509 35,000  Level FlightAware
18:56 31.0440 -88.5340 67° East 442 509 35,000  Level FlightAware
18:57 31.0880 -88.4110 67° East 442 509 35,000  Level FlightAware
18:57 31.1160 -88.3320 67° East 440 506 35,000  Level FlightAware
18:58 31.1430 -88.2580 67° East 440 506 35,000  Level FlightAware
18:58 31.1740 -88.1690 68° East 440 506 35,000  Level FlightAware
18:59 31.2120 -88.0700 66° East 438 504 35,000  Level FlightAware
19:00 31.2380 -88.0040 65° Northeast 438 504 35,000  Level FlightAware
19:01 31.2730 -87.9180 65° Northeast 438 504 35,000  Level FlightAware
19:01 31.3060 -87.8340 65° Northeast 438 504 35,000  Level FlightAware
19:02 31.3340 -87.7650 65° Northeast 438 504 35,000  Level FlightAware
19:03 31.3670 -87.6810 65° Northeast 438 504 35,000  Level FlightAware
19:03 31.3930 -87.6150 65° Northeast 438 504 35,000  Level FlightAware
19:04 31.4210 -87.5460 65° Northeast 438 504 35,000  Level FlightAware
19:05 31.4580 -87.4520 65° Northeast 438 504 35,000  Level FlightAware
19:05 31.4840 -87.3860 65° Northeast 438 504 35,000  Level FlightAware
19:06 31.5160 -87.3060 65° Northeast 438 504 35,000  Level FlightAware
19:07 31.5450 -87.2340 65° Northeast 438 504 35,000  Level FlightAware
19:08 31.5790 -87.1480 65° Northeast 438 504 35,000  Level FlightAware
19:08 31.6050 -87.0820 65° Northeast 438 504 35,000  Level FlightAware
19:14 32.0720 -86.2040 58° Northeast 442 509 35,000  Level FlightAware
19:15 32.0980 -86.1220 69° East 441 507 35,000  Level FlightAware
19:15 32.1260 -86.0350 69° East 441 507 35,000  Level FlightAware
19:16 32.1610 -85.9140 71° East 441 507 35,000  Level FlightAware
19:17 32.1860 -85.8310 70° East 441 507 35,000  Level FlightAware
19:17 32.2140 -85.7380 70° East 441 507 35,000  Level FlightAware
19:18 32.2350 -85.6690 70° East 441 507 35,000  Level FlightAware
19:19 32.2570 -85.5980 70° East 441 507 35,000  Level FlightAware
19:20 32.3460 -85.3930 63° Northeast 438 504 35,000  Level FlightAware
19:21 32.3980 -85.3220 49° Northeast 440 506 35,000  Level FlightAware
19:21 32.4450 -85.2570 49° Northeast 440 506 35,000  Level FlightAware
19:22 32.5100 -85.1660 50° Northeast 441 507 35,000  Level FlightAware
19:23 32.5590 -85.0980 49° Northeast 442 509 35,000  Level FlightAware
19:23 32.6180 -85.0200 48° Northeast 446 513 35,000  Level FlightAware
19:24 32.6690 -84.9520 48° Northeast 446 513 35,000  Level FlightAware
19:25 32.7250 -84.8780 48° Northeast 446 513 35,000  Level FlightAware
19:26 32.8080 -84.7910 41° Northeast 446 513 35,000  Level FlightAware
19:26 32.8640 -84.7260 44° Northeast 447 514 35,000  Level FlightAware
19:27 32.9350 -84.6460 43° Northeast 451 519 35,000  Level FlightAware
19:28 32.9930 -84.5690 48° Northeast 459 528 35,000  Level FlightAware
19:28 33.0520 -84.4840 50° Northeast 460 529 35,000  Level FlightAware
19:29 33.1080 -84.4050 50° Northeast 462 532 35,000  Level FlightAware
19:30 33.1630 -84.3270 50° Northeast 460 529 35,000  Level FlightAware
19:30 33.2220 -84.2430 50° Northeast 464 534 35,000  Level FlightAware
19:31 33.2840 -84.1540 50° Northeast 467 537 35,000  Level FlightAware
19:32 33.3400 -84.0740 50° Northeast 468 539 35,000  Level FlightAware
19:33 33.4070 -83.9940 45° Northeast 465 535 35,000  Level FlightAware
19:33 33.4700 -83.9340 38° Northeast 462 532 35,000  Level FlightAware
19:33 33.4863 -83.9182 39° Northeast 462 532 35,000  Level FlightAware ADS-B
19:34 33.5400 -83.8670 38° Northeast 461 531 35,000  Level FlightAware
19:35 33.6130 -83.7970 39° Northeast 462 532 35,000  Level FlightAware
19:35 33.6700 -83.7430 38° Northeast 462 532 35,000  Level FlightAware
19:36 33.7580 -83.6600 38° Northeast 459 528 35,000  Level FlightAware
19:37 33.8160 -83.6050 38° Northeast 459 528 35,000  Level FlightAware
19:37 33.8850 -83.5410 38° Northeast 459 528 35,000  Level FlightAware
19:38 33.9600 -83.4710 38° Northeast 463 533 35,000  Level FlightAware
19:39 34.0282 -83.4060 38° Northeast 468 539 35,000  Level FlightAware ADS-B
19:39 34.0799 -83.3574 38° Northeast 470 541 35,000  Level FlightAware ADS-B
19:40 34.1800 -83.2638 38° Northeast 470 541 35,000  Level FlightAware ADS-B
19:41 34.2446 -83.2038 38° Northeast 471 542 35,000  Level FlightAware ADS-B
19:42 34.3190 -83.1354 37° Northeast 475 547 35,000  Level FlightAware ADS-B
19:42 34.3728 -83.0862 37° Northeast 478 550 35,000  Level FlightAware ADS-B
19:43 34.4396 -83.0245 37° Northeast 477 549 35,000  Level FlightAware ADS-B
19:43 34.4986 -82.9699 37° Northeast 474 545 35,000  Level FlightAware ADS-B
19:44 34.5539 -82.9188 37° Northeast 469 540 35,000  Level FlightAware ADS-B
19:44 34.6149 -82.8624 37° Northeast 469 540 35,000  Level FlightAware ADS-B
19:45 34.6720 -82.8098 37° Northeast 467 537 35,000  Level FlightAware ADS-B
19:46 34.7324 -82.7542 37° Northeast 468 539 35,000  Level FlightAware ADS-B
19:46 34.7865 -82.7048 37° Northeast 472 543 35,000  Level FlightAware ADS-B
19:47 34.8398 -82.6564 37° Northeast 472 543 35,000  Level FlightAware ADS-B
19:47 34.8935 -82.6074 37° Northeast 473 544 35,000  Level FlightAware ADS-B
19:48 34.9467 -82.5585 37° Northeast 475 547 35,000  Level FlightAware ADS-B
19:48 34.9838 -82.5243 37° Northeast 476 548 35,000  Level FlightAware ADS-B
19:48 35.0093 -82.4953 43° Northeast 479 551 35,000  Level FlightAware ADS-B
19:49 35.0516 -82.4321 51° Northeast 482 555 35,000  Level FlightAware ADS-B
19:49 35.0915 -82.3661 54° Northeast 482 555 35,000  Level FlightAware ADS-B
19:50 35.1313 -82.2997 54° Northeast 481 554 35,000  Level FlightAware ADS-B
19:50 35.1713 -82.2327 54° Northeast 480 552 35,000  Level FlightAware ADS-B
19:51 35.2109 -82.1670 54° Northeast 478 550 35,000  Level FlightAware ADS-B
19:51 35.2513 -82.1012 53° Northeast 480 552 35,000  Level FlightAware ADS-B
19:52 35.2947 -82.0314 53° Northeast 480 552 35,000  Level FlightAware ADS-B
19:52 35.3352 -81.9663 53° Northeast 482 555 35,000 -120 Level FlightAware ADS-B
19:53 35.3735 -81.8968 56° Northeast 483 556 34,900 -480 Descending FlightAware ADS-B
19:53 35.3856 -81.8730 58° Northeast 481 554 34,700 -1,080 Descending FlightAware ADS-B
19:53 35.4048 -81.8291 62° Northeast 482 555 34,400 -1,380 Descending FlightAware ADS-B
19:54 35.4328 -81.7527 66° East 485 558 33,600 -1,800 Descending FlightAware ADS-B
19:54 35.4597 -81.6757 67° East 476 548 32,600 -1,440 Descending FlightAware ADS-B
19:55 35.4877 -81.5963 67° East 468 539 32,100 -1,020 Descending FlightAware ADS-B
19:55 35.5158 -81.5158 67° East 468 539 31,500 -1,020 Descending FlightAware ADS-B
19:56 35.5435 -81.4370 67° East 468 539 31,000 -420 Descending FlightAware ADS-B
19:57 35.5770 -81.3420 67° East 467 537 31,000  Level FlightAware
19:57 35.5842 -81.3218 66° East 468 539 31,000  Level FlightAware ADS-B
19:57 35.6110 -81.2440 67° East 467 537 31,000  Level FlightAware
19:57 35.6217 -81.2143 66° East 467 537 31,000  Level FlightAware ADS-B
19:58 35.6600 -81.1060 66° East 466 536 31,000  Level FlightAware
19:59 35.6940 -81.0060 67° East 468 539 31,000  Level FlightAware
20:00 35.7300 -80.9020 67° East 472 543 31,000  Level FlightAware
20:00 35.7680 -80.7930 67° East 476 548 31,000  Level FlightAware
20:01 35.7980 -80.7050 67° East 476 548 31,000  Level FlightAware
20:02 35.8390 -80.5840 67° East 475 547 31,000  Level FlightAware
20:02 35.8750 -80.4810 67° East 473 544 31,000  Level FlightAware
20:03 35.9110 -80.3740 67° East 473 544 31,000  Level FlightAware
20:04 35.9370 -80.2980 67° East 474 545 31,000  Level FlightAware
20:05 35.9910 -80.1410 67° East 478 550 31,000  Level FlightAware
20:05 36.0260 -80.0360 68° East 31,000  Level FlightAware
20:06 36.0790 -79.9440 55° Northeast 468 539 31,000  Level FlightAware
20:07 36.1550 -79.8930 28° Northeast 447 514 31,000  Level FlightAware
20:08 36.2990 -79.8840 North 447 514 31,000  Level FlightAware
20:09 36.3780 -79.8940 354° North 436 502 31,000  Level FlightAware
20:10 36.5060 -79.9190 351° North 437 503 31,000  Level FlightAware
20:10 36.5830 -79.9320 352° North 437 503 31,000  Level FlightAware
20:11 36.6880 -79.9530 351° North 437 503 31,000  Level FlightAware
20:12 36.7580 -79.9670 351° North 437 503 31,000  Level FlightAware
20:13 36.8190 -79.9790 351° North 437 503 31,000  Level FlightAware
20:13 36.9640 -79.8930 25° Northeast 455 524 31,000 -420 Level FlightAware
20:14 37.0700 -79.8660 11° North 453 521 30,400 -840 Descending FlightAware
20:15 37.1510 -79.8450 12° North 457 526 29,700 -720 Descending FlightAware
20:16 37.2570 -79.8190 11° North 457 526 29,300 -480 Descending FlightAware
20:16 37.3360 -79.7980 12° North 459 528 29,000 -240 Descending FlightAware
20:17 37.3960 -79.7820 12° North 459 528 29,000  Level FlightAware
20:18 37.4800 -79.7590 12° North 459 528 29,000  Level FlightAware
20:18 37.5490 -79.7410 12° North 459 528 29,000  Level FlightAware
20:19 37.6140 -79.7230 12° North 459 528 29,000  Level FlightAware
20:20 37.7010 -79.7000 12° North 459 528 29,000 -1,140 Level FlightAware
20:21 37.8936 -79.6600 12° North 455 524 27,100 -1,800 Descending Washington Center
20:22 38.0200 -79.6272 12° North 455 524 25,700 -1,500 Descending Washington Center
20:23 38.1336 -79.5964 12° North 455 524 24,200 -900 Descending Washington Center
20:24 38.2425 -79.5203 29° Northeast 438 504 24,000 -1,380 Descending Washington Center
20:29 38.5770 -78.7370 29° Northeast 419 482 15,500 -1,680 Descending FlightAware
20:30 38.6120 -78.6550 61° Northeast 408 470 14,100 -2,160 Descending FlightAware
20:31 38.6530 -78.5590 61° Northeast 397 457 12,500 -1,740 Descending FlightAware
20:31 38.6880 -78.4770 61° Northeast 374 430 11,700 -900 Descending FlightAware
20:32 38.7230 -78.3950 61° Northeast 335 386 11,300 -360 Descending FlightAware
20:33 38.7600 -78.3360 51° Northeast 317 365 11,200 -720 Descending FlightAware
20:33 38.8030 -78.2770 47° Northeast 317 365 10,300 -1,140 Descending FlightAware
20:34 38.8320 -78.2370 47° Northeast 297 342 9,800 -1,200 Descending FlightAware
20:34 38.8530 -78.2030 52° Northeast 296 341 9,200 -1,500 Descending FlightAware
20:35 38.8610 -78.1780 68° East 300 345 8,800 -1,620 Descending FlightAware
20:35 38.8740 -78.1280 72° East 304 350 8,000 -1,560 Descending FlightAware
20:35 38.8850 -78.0840 72° East 303 349 7,400 -900 Descending FlightAware
20:36 38.8970 -78.0350 73° East 291 335 7,200 -600 Descending FlightAware
20:36 38.9080 -77.9930 71° East 287 330 6,900 -900 Descending FlightAware
20:37 38.9140 -77.9670 73° East 289 333 6,600 -960 Descending FlightAware
20:37 38.9260 -77.9190 72° East 286 329 6,200 -480 Descending FlightAware
20:38 38.9360 -77.8790 72° East 284 327 6,200 60 Level FlightAware
20:38 38.9480 -77.8310 72° East 286 329 6,300  Climbing FlightAware
20:38 38.9580 -77.7900 73° East 287 330 6,200  Descending FlightAware
20:39 38.9640 -77.7490 79° East 288 331 6,300  Climbing FlightAware
20:39 38.9580 -77.6880 97° East 292 336 6,200  Descending FlightAware
20:41 38.9930 -77.5900 65° Northeast 280 322 6,300 -60 Climbing FlightAware
20:41 39.0290 -77.5750 18° North 256 295 6,100 -960 Descending FlightAware
20:43 39.1240 -77.5440 14° North 253 291 4,400 -1,200 Descending FlightAware
20:43 39.1250 -77.5320 84° East 254 292 4,000 -1,800 Descending FlightAware
20:43 39.1170 -77.5040 110° East 249 287 3,500 -1,320 Descending FlightAware
20:43 39.1070 -77.4930 140° Southeast 235 270 3,300 -1,680 Descending FlightAware
20:44 39.1000 -77.4833 159° South 250 288 3,000 -480 Descending Potomac TRACON
20:44 39.0760 -77.4680 148° Southeast 193 222 3,000 -900 Level FlightAware
20:45 39.0500 -77.4667 165° South 181 208 2,100 -1,980 Descending Potomac TRACON
20:49 38.9474 -77.4599 159° South  Level Estimated